sensor_id;sensor_type;location;lat;lon;timestamp;pressure;altitude;pressure_sealevel;temperature
72675;BMP280;60752;53.962;9.614;2022-09-21T00:00:38;102536.59;;;8.36
72675;BMP280;60752;53.962;9.614;2022-09-21T00:05:39;102542.81;;;8.34
72675;BMP280;60752;53.962;9.614;2022-09-21T00:10:40;102543.84;;;8.33
72675;BMP280;60752;53.962;9.614;2022-09-21T00:15:40;102545.66;;;8.26
72675;BMP280;60752;53.962;9.614;2022-09-21T00:20:42;102551.69;;;8.20
72675;BMP280;60752;53.962;9.614;2022-09-21T00:25:42;102548.34;;;8.13
72675;BMP280;60752;53.962;9.614;2022-09-21T00:30:43;102544.69;;;8.14
72675;BMP280;60752;53.962;9.614;2022-09-21T00:35:45;102544.94;;;8.06
72675;BMP280;60752;53.962;9.614;2022-09-21T00:40:45;102542.34;;;7.99
72675;BMP280;60752;53.962;9.614;2022-09-21T00:45:47;102545.78;;;7.93
72675;BMP280;60752;53.962;9.614;2022-09-21T00:50:53;102546.16;;;7.90
72675;BMP280;60752;53.962;9.614;2022-09-21T00:55:55;102544.78;;;7.88
72675;BMP280;60752;53.962;9.614;2022-09-21T01:00:57;102542.38;;;7.86
72675;BMP280;60752;53.962;9.614;2022-09-21T01:06:00;102547.56;;;7.80
72675;BMP280;60752;53.962;9.614;2022-09-21T01:11:15;102554.81;;;7.78
72675;BMP280;60752;53.962;9.614;2022-09-21T01:16:25;102555.81;;;7.70
72675;BMP280;60752;53.962;9.614;2022-09-21T01:21:30;102554.03;;;7.64
72675;BMP280;60752;53.962;9.614;2022-09-21T01:26:41;102554.41;;;7.61
72675;BMP280;60752;53.962;9.614;2022-09-21T01:31:49;102557.25;;;7.53
72675;BMP280;60752;53.962;9.614;2022-09-21T01:36:52;102557.03;;;7.48
72675;BMP280;60752;53.962;9.614;2022-09-21T01:41:54;102554.81;;;7.44
72675;BMP280;60752;53.962;9.614;2022-09-21T01:46:57;102561.22;;;7.49
72675;BMP280;60752;53.962;9.614;2022-09-21T01:52:01;102567.66;;;7.46
72675;BMP280;60752;53.962;9.614;2022-09-21T01:57:06;102565.66;;;7.41
72675;BMP280;60752;53.962;9.614;2022-09-21T02:02:12;102563.63;;;7.37
72675;BMP280;60752;53.962;9.614;2022-09-21T02:07:15;102568.63;;;7.32
72675;BMP280;60752;53.962;9.614;2022-09-21T02:12:16;102563.41;;;7.25
72675;BMP280;60752;53.962;9.614;2022-09-21T02:17:29;102567.03;;;7.18
72675;BMP280;60752;53.962;9.614;2022-09-21T02:22:32;102569.41;;;7.12
72675;BMP280;60752;53.962;9.614;2022-09-21T02:27:39;102572.41;;;7.09
72675;BMP280;60752;53.962;9.614;2022-09-21T02:32:46;102567.38;;;7.08
72675;BMP280;60752;53.962;9.614;2022-09-21T02:37:52;102574.56;;;6.99
72675;BMP280;60752;53.962;9.614;2022-09-21T02:42:57;102582.34;;;6.86
72675;BMP280;60752;53.962;9.614;2022-09-21T02:48:04;102579.72;;;6.86
72675;BMP280;60752;53.962;9.614;2022-09-21T02:53:07;102573.13;;;6.83
72675;BMP280;60752;53.962;9.614;2022-09-21T02:58:11;102579.13;;;6.84
72675;BMP280;60752;53.962;9.614;2022-09-21T03:03:15;102572.31;;;6.76
72675;BMP280;60752;53.962;9.614;2022-09-21T03:08:16;102574.47;;;6.73
72675;BMP280;60752;53.962;9.614;2022-09-21T03:13:17;102576.69;;;6.69
72675;BMP280;60752;53.962;9.614;2022-09-21T03:18:19;102579.03;;;6.64
72675;BMP280;60752;53.962;9.614;2022-09-21T03:23:19;102585.63;;;6.60
72675;BMP280;60752;53.962;9.614;2022-09-21T03:28:20;102581.25;;;6.61
72675;BMP280;60752;53.962;9.614;2022-09-21T03:33:22;102581.84;;;6.56
72675;BMP280;60752;53.962;9.614;2022-09-21T03:38:23;102589.19;;;6.52
72675;BMP280;60752;53.962;9.614;2022-09-21T03:43:24;102591.78;;;6.52
72675;BMP280;60752;53.962;9.614;2022-09-21T03:48:25;102583.78;;;6.47
72675;BMP280;60752;53.962;9.614;2022-09-21T03:53:26;102585.38;;;6.42
72675;BMP280;60752;53.962;9.614;2022-09-21T03:58:26;102591.38;;;6.42
72675;BMP280;60752;53.962;9.614;2022-09-21T04:03:28;102592.50;;;6.33
72675;BMP280;60752;53.962;9.614;2022-09-21T04:08:29;102596.50;;;6.36
72675;BMP280;60752;53.962;9.614;2022-09-21T04:13:29;102593.09;;;6.35
72675;BMP280;60752;53.962;9.614;2022-09-21T04:18:31;102595.69;;;6.35
72675;BMP280;60752;53.962;9.614;2022-09-21T04:23:31;102601.66;;;6.29
72675;BMP280;60752;53.962;9.614;2022-09-21T04:28:32;102597.91;;;6.32
72675;BMP280;60752;53.962;9.614;2022-09-21T04:33:34;102598.09;;;6.30
72675;BMP280;60752;53.962;9.614;2022-09-21T04:38:34;102594.38;;;6.18
72675;BMP280;60752;53.962;9.614;2022-09-21T04:43:34;102598.63;;;6.19
72675;BMP280;60752;53.962;9.614;2022-09-21T04:48:36;102595.84;;;6.20
72675;BMP280;60752;53.962;9.614;2022-09-21T04:53:38;102603.19;;;6.17
72675;BMP280;60752;53.962;9.614;2022-09-21T04:58:39;102605.19;;;6.15
72675;BMP280;60752;53.962;9.614;2022-09-21T05:03:41;102600.78;;;6.15
72675;BMP280;60752;53.962;9.614;2022-09-21T05:08:41;102612.16;;;6.14
72675;BMP280;60752;53.962;9.614;2022-09-21T05:13:42;102618.13;;;6.08
72675;BMP280;60752;53.962;9.614;2022-09-21T05:18:44;102615.34;;;6.10
72675;BMP280;60752;53.962;9.614;2022-09-21T05:23:45;102623.81;;;6.18
72675;BMP280;60752;53.962;9.614;2022-09-21T05:28:46;102630.56;;;6.13
72675;BMP280;60752;53.962;9.614;2022-09-21T05:33:51;102631.53;;;6.12
72675;BMP280;60752;53.962;9.614;2022-09-21T05:38:53;102629.94;;;6.11
72675;BMP280;60752;53.962;9.614;2022-09-21T05:43:53;102629.97;;;6.17
72675;BMP280;60752;53.962;9.614;2022-09-21T05:48:59;102628.66;;;6.28
72675;BMP280;60752;53.962;9.614;2022-09-21T05:54:02;102634.53;;;6.37
72675;BMP280;60752;53.962;9.614;2022-09-21T05:59:16;102628.22;;;6.52
72675;BMP280;60752;53.962;9.614;2022-09-21T06:04:26;102628.25;;;6.59
72675;BMP280;60752;53.962;9.614;2022-09-21T06:09:26;102632.72;;;6.65
72675;BMP280;60752;53.962;9.614;2022-09-21T06:14:27;102634.69;;;6.70
72675;BMP280;60752;53.962;9.614;2022-09-21T06:19:28;102640.56;;;6.78
72675;BMP280;60752;53.962;9.614;2022-09-21T06:24:29;102642.03;;;6.94
72675;BMP280;60752;53.962;9.614;2022-09-21T06:29:29;102652.50;;;7.14
72675;BMP280;60752;53.962;9.614;2022-09-21T06:34:31;102654.59;;;7.45
72675;BMP280;60752;53.962;9.614;2022-09-21T06:39:31;102653.06;;;7.90
72675;BMP280;60752;53.962;9.614;2022-09-21T06:44:32;102663.63;;;8.48
72675;BMP280;60752;53.962;9.614;2022-09-21T06:49:34;102667.41;;;9.10
72675;BMP280;60752;53.962;9.614;2022-09-21T06:54:34;102669.94;;;9.80
72675;BMP280;60752;53.962;9.614;2022-09-21T06:59:34;102678.75;;;10.47
72675;BMP280;60752;53.962;9.614;2022-09-21T07:04:36;102674.84;;;11.16
72675;BMP280;60752;53.962;9.614;2022-09-21T07:09:36;102680.84;;;11.58
72675;BMP280;60752;53.962;9.614;2022-09-21T07:14:37;102677.75;;;12.08
72675;BMP280;60752;53.962;9.614;2022-09-21T07:19:39;102681.59;;;12.29
72675;BMP280;60752;53.962;9.614;2022-09-21T07:24:39;102676.22;;;12.64
72675;BMP280;60752;53.962;9.614;2022-09-21T07:29:39;102680.59;;;12.87
72675;BMP280;60752;53.962;9.614;2022-09-21T07:34:41;102690.09;;;13.21
72675;BMP280;60752;53.962;9.614;2022-09-21T07:39:42;102689.59;;;13.58
72675;BMP280;60752;53.962;9.614;2022-09-21T07:44:42;102694.41;;;14.00
72675;BMP280;60752;53.962;9.614;2022-09-21T07:49:44;102692.44;;;14.34
72675;BMP280;60752;53.962;9.614;2022-09-21T07:54:44;102685.53;;;14.54
72675;BMP280;60752;53.962;9.614;2022-09-21T07:59:44;102695.00;;;14.77
72675;BMP280;60752;53.962;9.614;2022-09-21T08:04:46;102689.41;;;15.01
72675;BMP280;60752;53.962;9.614;2022-09-21T08:09:47;102693.22;;;15.20
72675;BMP280;60752;53.962;9.614;2022-09-21T08:14:47;102692.13;;;15.53
72675;BMP280;60752;53.962;9.614;2022-09-21T08:19:49;102697.56;;;15.83
72675;BMP280;60752;53.962;9.614;2022-09-21T08:24:49;102693.66;;;16.01
72675;BMP280;60752;53.962;9.614;2022-09-21T08:29:50;102692.72;;;16.27
72675;BMP280;60752;53.962;9.614;2022-09-21T08:34:52;102696.72;;;16.50
72675;BMP280;60752;53.962;9.614;2022-09-21T08:39:52;102696.47;;;16.77
72675;BMP280;60752;53.962;9.614;2022-09-21T08:44:56;102696.44;;;17.23
72675;BMP280;60752;53.962;9.614;2022-09-21T08:50:02;102700.56;;;17.65
72675;BMP280;60752;53.962;9.614;2022-09-21T08:55:07;102701.47;;;17.99
72675;BMP280;60752;53.962;9.614;2022-09-21T09:00:13;102705.41;;;18.41
72675;BMP280;60752;53.962;9.614;2022-09-21T09:05:26;102699.97;;;18.61
72675;BMP280;60752;53.962;9.614;2022-09-21T09:10:35;102709.63;;;18.81
72675;BMP280;60752;53.962;9.614;2022-09-21T09:15:47;102705.78;;;18.97
72675;BMP280;60752;53.962;9.614;2022-09-21T09:20:56;102700.13;;;19.27
72675;BMP280;60752;53.962;9.614;2022-09-21T09:26:00;102700.38;;;19.50
72675;BMP280;60752;53.962;9.614;2022-09-21T09:31:10;102709.09;;;19.74
72675;BMP280;60752;53.962;9.614;2022-09-21T09:36:13;102697.84;;;20.01
72675;BMP280;60752;53.962;9.614;2022-09-21T09:41:29;102695.47;;;20.18
72675;BMP280;60752;53.962;9.614;2022-09-21T09:46:45;102694.91;;;20.16
72675;BMP280;60752;53.962;9.614;2022-09-21T09:51:50;102706.38;;;20.35
72675;BMP280;60752;53.962;9.614;2022-09-21T09:56:50;102707.91;;;20.36
72675;BMP280;60752;53.962;9.614;2022-09-21T10:01:59;102708.28;;;20.62
72675;BMP280;60752;53.962;9.614;2022-09-21T10:07:01;102704.25;;;20.65
72675;BMP280;60752;53.962;9.614;2022-09-21T10:12:14;102713.53;;;20.67
72675;BMP280;60752;53.962;9.614;2022-09-21T10:17:16;102698.34;;;20.68
72675;BMP280;60752;53.962;9.614;2022-09-21T10:22:19;102697.06;;;20.65
72675;BMP280;60752;53.962;9.614;2022-09-21T10:27:22;102695.09;;;19.87
72675;BMP280;60752;53.962;9.614;2022-09-21T10:32:25;102696.22;;;19.20
72675;BMP280;60752;53.962;9.614;2022-09-21T10:37:29;102688.31;;;19.15
72675;BMP280;60752;53.962;9.614;2022-09-21T10:42:33;102683.50;;;19.17
72675;BMP280;60752;53.962;9.614;2022-09-21T10:47:35;102681.69;;;18.88
72675;BMP280;60752;53.962;9.614;2022-09-21T10:52:40;102681.84;;;18.39
72675;BMP280;60752;53.962;9.614;2022-09-21T10:57:42;102669.34;;;18.01
72675;BMP280;60752;53.962;9.614;2022-09-21T11:02:43;102682.00;;;17.70
72675;BMP280;60752;53.962;9.614;2022-09-21T11:07:47;102669.03;;;17.63
72675;BMP280;60752;53.962;9.614;2022-09-21T11:12:59;102673.41;;;17.88
72675;BMP280;60752;53.962;9.614;2022-09-21T11:18:05;102668.50;;;18.10
72675;BMP280;60752;53.962;9.614;2022-09-21T11:23:19;102676.22;;;18.07
72675;BMP280;60752;53.962;9.614;2022-09-21T11:28:25;102672.63;;;17.82
72675;BMP280;60752;53.962;9.614;2022-09-21T11:33:36;102663.00;;;17.47
72675;BMP280;60752;53.962;9.614;2022-09-21T11:38:48;102662.81;;;17.23
72675;BMP280;60752;53.962;9.614;2022-09-21T11:44:04;102674.72;;;17.21
72675;BMP280;60752;53.962;9.614;2022-09-21T11:49:24;102664.94;;;17.11
72675;BMP280;60752;53.962;9.614;2022-09-21T11:54:55;102662.03;;;16.98
72675;BMP280;60752;53.962;9.614;2022-09-21T12:00:09;102659.16;;;16.84
72675;BMP280;60752;53.962;9.614;2022-09-21T12:05:15;102663.94;;;16.72
72675;BMP280;60752;53.962;9.614;2022-09-21T12:10:49;102659.44;;;16.62
72675;BMP280;60752;53.962;9.614;2022-09-21T12:15:59;102646.72;;;16.69
72675;BMP280;60752;53.962;9.614;2022-09-21T12:21:07;102648.34;;;16.65
72675;BMP280;60752;53.962;9.614;2022-09-21T12:26:14;102643.81;;;16.50
72675;BMP280;60752;53.962;9.614;2022-09-21T12:31:19;102649.91;;;16.51
72675;BMP280;60752;53.962;9.614;2022-09-21T12:36:24;102636.69;;;16.51
72675;BMP280;60752;53.962;9.614;2022-09-21T12:41:33;102635.38;;;16.48
72675;BMP280;60752;53.962;9.614;2022-09-21T12:46:38;102634.56;;;16.48
72675;BMP280;60752;53.962;9.614;2022-09-21T12:51:42;102634.31;;;16.49
72675;BMP280;60752;53.962;9.614;2022-09-21T12:56:49;102628.75;;;16.46
72675;BMP280;60752;53.962;9.614;2022-09-21T13:01:56;102632.19;;;16.41
72675;BMP280;60752;53.962;9.614;2022-09-21T13:07:24;102625.56;;;16.39
72675;BMP280;60752;53.962;9.614;2022-09-21T13:12:30;102616.06;;;16.38
72675;BMP280;60752;53.962;9.614;2022-09-21T13:17:32;102618.16;;;16.36
72675;BMP280;60752;53.962;9.614;2022-09-21T13:22:34;102621.63;;;16.31
72675;BMP280;60752;53.962;9.614;2022-09-21T13:28:18;102626.88;;;16.41
72675;BMP280;60752;53.962;9.614;2022-09-21T13:33:32;102611.56;;;16.48
72675;BMP280;60752;53.962;9.614;2022-09-21T13:38:55;102612.88;;;16.51
72675;BMP280;60752;53.962;9.614;2022-09-21T13:44:02;102604.69;;;16.47
72675;BMP280;60752;53.962;9.614;2022-09-21T13:49:12;102608.16;;;16.38
72675;BMP280;60752;53.962;9.614;2022-09-21T13:54:15;102607.34;;;16.27
72675;BMP280;60752;53.962;9.614;2022-09-21T13:59:21;102602.03;;;16.17
72675;BMP280;60752;53.962;9.614;2022-09-21T14:04:25;102607.81;;;16.09
72675;BMP280;60752;53.962;9.614;2022-09-21T14:09:28;102595.16;;;16.11
72675;BMP280;60752;53.962;9.614;2022-09-21T14:14:32;102585.66;;;16.15
72675;BMP280;60752;53.962;9.614;2022-09-21T14:25:28;102574.53;;;16.33
72675;BMP280;60752;53.962;9.614;2022-09-21T14:30:33;102570.56;;;16.41
72675;BMP280;60752;53.962;9.614;2022-09-21T14:35:37;102580.91;;;16.42
72675;BMP280;60752;53.962;9.614;2022-09-21T14:40:39;102578.00;;;16.49
72675;BMP280;60752;53.962;9.614;2022-09-21T14:45:53;102578.25;;;16.57
72675;BMP280;60752;53.962;9.614;2022-09-21T14:51:00;102569.53;;;16.62
72675;BMP280;60752;53.962;9.614;2022-09-21T14:56:19;102571.66;;;16.60
72675;BMP280;60752;53.962;9.614;2022-09-21T15:01:35;102565.56;;;16.54
72675;BMP280;60752;53.962;9.614;2022-09-21T15:06:38;102571.38;;;16.51
72675;BMP280;60752;53.962;9.614;2022-09-21T15:11:44;102565.84;;;16.43
72675;BMP280;60752;53.962;9.614;2022-09-21T15:16:48;102566.09;;;16.31
72675;BMP280;60752;53.962;9.614;2022-09-21T15:21:50;102557.38;;;16.20
72675;BMP280;60752;53.962;9.614;2022-09-21T15:26:53;102563.19;;;16.07
72675;BMP280;60752;53.962;9.614;2022-09-21T15:31:57;102556.53;;;15.94
72675;BMP280;60752;53.962;9.614;2022-09-21T15:37:06;102559.41;;;15.83
72675;BMP280;60752;53.962;9.614;2022-09-21T15:42:14;102549.91;;;15.72
72675;BMP280;60752;53.962;9.614;2022-09-21T15:47:20;102554.63;;;15.59
72675;BMP280;60752;53.962;9.614;2022-09-21T15:52:26;102547.47;;;15.50
72675;BMP280;60752;53.962;9.614;2022-09-21T15:57:31;102550.06;;;15.40
72675;BMP280;60752;53.962;9.614;2022-09-21T16:02:37;102551.59;;;15.31
72675;BMP280;60752;53.962;9.614;2022-09-21T16:07:38;102555.75;;;15.16
72675;BMP280;60752;53.962;9.614;2022-09-21T16:12:40;102551.25;;;15.12
72675;BMP280;60752;53.962;9.614;2022-09-21T16:17:55;102556.78;;;15.10
72675;BMP280;60752;53.962;9.614;2022-09-21T16:23:03;102562.34;;;15.14
72675;BMP280;60752;53.962;9.614;2022-09-21T16:28:08;102558.41;;;15.16
72675;BMP280;60752;53.962;9.614;2022-09-21T16:33:40;102555.50;;;15.18
72675;BMP280;60752;53.962;9.614;2022-09-21T16:38:40;102555.28;;;15.24
72675;BMP280;60752;53.962;9.614;2022-09-21T16:43:41;102553.44;;;15.30
72675;BMP280;60752;53.962;9.614;2022-09-21T16:48:43;102556.13;;;15.35
72675;BMP280;60752;53.962;9.614;2022-09-21T16:53:43;102561.69;;;15.39
72675;BMP280;60752;53.962;9.614;2022-09-21T16:58:44;102561.44;;;15.40
72675;BMP280;60752;53.962;9.614;2022-09-21T17:03:46;102567.75;;;15.39
72675;BMP280;60752;53.962;9.614;2022-09-21T17:08:47;102557.69;;;15.36
72675;BMP280;60752;53.962;9.614;2022-09-21T17:13:48;102566.38;;;15.32
72675;BMP280;60752;53.962;9.614;2022-09-21T17:18:50;102574.50;;;15.25
72675;BMP280;60752;53.962;9.614;2022-09-21T17:23:51;102558.41;;;15.16
72675;BMP280;60752;53.962;9.614;2022-09-21T17:28:51;102568.59;;;14.98
72675;BMP280;60752;53.962;9.614;2022-09-21T17:33:53;102563.72;;;14.84
72675;BMP280;60752;53.962;9.614;2022-09-21T17:38:54;102566.50;;;14.68
72675;BMP280;60752;53.962;9.614;2022-09-21T17:44:01;102569.06;;;14.52
72675;BMP280;60752;53.962;9.614;2022-09-21T17:49:07;102566.59;;;14.41
72675;BMP280;60752;53.962;9.614;2022-09-21T17:54:08;102563.25;;;14.23
72675;BMP280;60752;53.962;9.614;2022-09-21T17:59:22;102567.81;;;14.06
72675;BMP280;60752;53.962;9.614;2022-09-21T18:04:25;102573.91;;;13.85
72675;BMP280;60752;53.962;9.614;2022-09-21T18:09:26;102572.91;;;13.69
72675;BMP280;60752;53.962;9.614;2022-09-21T18:14:33;102572.50;;;13.55
72675;BMP280;60752;53.962;9.614;2022-09-21T18:19:45;102579.63;;;13.38
72675;BMP280;60752;53.962;9.614;2022-09-21T18:24:48;102578.16;;;13.25
72675;BMP280;60752;53.962;9.614;2022-09-21T18:29:50;102582.22;;;13.16
72675;BMP280;60752;53.962;9.614;2022-09-21T18:40:28;102585.81;;;12.93
72675;BMP280;60752;53.962;9.614;2022-09-21T18:45:36;102585.34;;;12.80
72675;BMP280;60752;53.962;9.614;2022-09-21T18:50:44;102581.75;;;12.69
72675;BMP280;60752;53.962;9.614;2022-09-21T18:55:47;102583.81;;;12.67
72675;BMP280;60752;53.962;9.614;2022-09-21T19:00:48;102574.69;;;12.58
72675;BMP280;60752;53.962;9.614;2022-09-21T19:05:55;102580.72;;;12.42
72675;BMP280;60752;53.962;9.614;2022-09-21T19:11:03;102586.13;;;12.35
72675;BMP280;60752;53.962;9.614;2022-09-21T19:16:14;102586.84;;;12.19
72675;BMP280;60752;53.962;9.614;2022-09-21T19:21:25;102583.69;;;12.05
72675;BMP280;60752;53.962;9.614;2022-09-21T19:26:34;102590.16;;;11.97
72675;BMP280;60752;53.962;9.614;2022-09-21T19:31:38;102593.09;;;11.89
72675;BMP280;60752;53.962;9.614;2022-09-21T19:36:38;102600.31;;;11.82
72675;BMP280;60752;53.962;9.614;2022-09-21T19:41:49;102595.63;;;11.72
72675;BMP280;60752;53.962;9.614;2022-09-21T19:47:11;102596.25;;;11.63
72675;BMP280;60752;53.962;9.614;2022-09-21T19:52:16;102595.53;;;11.56
72675;BMP280;60752;53.962;9.614;2022-09-21T19:57:20;102600.56;;;11.46
72675;BMP280;60752;53.962;9.614;2022-09-21T20:02:24;102592.81;;;11.39
72675;BMP280;60752;53.962;9.614;2022-09-21T20:07:36;102602.81;;;11.30
72675;BMP280;60752;53.962;9.614;2022-09-21T20:12:47;102603.97;;;11.23
72675;BMP280;60752;53.962;9.614;2022-09-21T20:17:50;102596.44;;;11.15
72675;BMP280;60752;53.962;9.614;2022-09-21T20:22:53;102597.97;;;11.04
72675;BMP280;60752;53.962;9.614;2022-09-21T20:27:56;102602.91;;;11.00
72675;BMP280;60752;53.962;9.614;2022-09-21T20:32:58;102600.94;;;10.96
72675;BMP280;60752;53.962;9.614;2022-09-21T20:38:00;102599.78;;;10.92
72675;BMP280;60752;53.962;9.614;2022-09-21T20:43:01;102587.03;;;10.84
72675;BMP280;60752;53.962;9.614;2022-09-21T20:48:02;102593.06;;;10.84
72675;BMP280;60752;53.962;9.614;2022-09-21T20:53:02;102596.69;;;10.83
72675;BMP280;60752;53.962;9.614;2022-09-21T20:58:04;102595.91;;;10.83
72675;BMP280;60752;53.962;9.614;2022-09-21T21:03:05;102590.31;;;10.79
72675;BMP280;60752;53.962;9.614;2022-09-21T21:08:05;102592.78;;;10.74
72675;BMP280;60752;53.962;9.614;2022-09-21T21:13:07;102590.47;;;10.66
72675;BMP280;60752;53.962;9.614;2022-09-21T21:18:09;102595.47;;;10.56
72675;BMP280;60752;53.962;9.614;2022-09-21T21:23:09;102593.47;;;10.51
72675;BMP280;60752;53.962;9.614;2022-09-21T21:28:11;102599.84;;;10.43
72675;BMP280;60752;53.962;9.614;2022-09-21T21:33:11;102609.50;;;10.43
72675;BMP280;60752;53.962;9.614;2022-09-21T21:38:12;102607.78;;;10.37
72675;BMP280;60752;53.962;9.614;2022-09-21T21:43:14;102611.13;;;10.26
72675;BMP280;60752;53.962;9.614;2022-09-21T21:48:15;102603.13;;;10.21
72675;BMP280;60752;53.962;9.614;2022-09-21T21:53:15;102603.19;;;10.14
72675;BMP280;60752;53.962;9.614;2022-09-21T21:58:17;102604.41;;;10.11
72675;BMP280;60752;53.962;9.614;2022-09-21T22:03:17;102601.69;;;10.06
72675;BMP280;60752;53.962;9.614;2022-09-21T22:08:18;102606.97;;;10.00
72675;BMP280;60752;53.962;9.614;2022-09-21T22:13:19;102596.13;;;9.96
72675;BMP280;60752;53.962;9.614;2022-09-21T22:18:20;102595.78;;;9.93
72675;BMP280;60752;53.962;9.614;2022-09-21T22:23:20;102602.72;;;9.80
72675;BMP280;60752;53.962;9.614;2022-09-21T22:28:22;102596.44;;;9.63
72675;BMP280;60752;53.962;9.614;2022-09-21T22:33:22;102592.81;;;9.64
72675;BMP280;60752;53.962;9.614;2022-09-21T22:38:23;102592.25;;;9.62
72675;BMP280;60752;53.962;9.614;2022-09-21T22:43:24;102586.50;;;9.53
72675;BMP280;60752;53.962;9.614;2022-09-21T22:48:25;102594.19;;;9.48
72675;BMP280;60752;53.962;9.614;2022-09-21T22:53:26;102587.19;;;9.42
72675;BMP280;60752;53.962;9.614;2022-09-21T22:58:28;102585.78;;;9.40
72675;BMP280;60752;53.962;9.614;2022-09-21T23:03:28;102587.59;;;9.39
72675;BMP280;60752;53.962;9.614;2022-09-21T23:08:29;102589.41;;;9.39
72675;BMP280;60752;53.962;9.614;2022-09-21T23:13:30;102591.47;;;9.37
72675;BMP280;60752;53.962;9.614;2022-09-21T23:18:31;102578.66;;;9.29
72675;BMP280;60752;53.962;9.614;2022-09-21T23:23:32;102575.47;;;9.27
72675;BMP280;60752;53.962;9.614;2022-09-21T23:28:35;102580.03;;;9.31
72675;BMP280;60752;53.962;9.614;2022-09-21T23:33:37;102567.78;;;9.32
72675;BMP280;60752;53.962;9.614;2022-09-21T23:38:38;102571.66;;;9.22
72675;BMP280;60752;53.962;9.614;2022-09-21T23:43:41;102565.25;;;9.18
72675;BMP280;60752;53.962;9.614;2022-09-21T23:48:42;102564.50;;;9.11
72675;BMP280;60752;53.962;9.614;2022-09-21T23:53:43;102560.75;;;9.01
72675;BMP280;60752;53.962;9.614;2022-09-21T23:58:46;102562.44;;;8.88
